createdAt,value
2018-01-28T00:00:09.562Z,1019.83
2018-01-28T00:01:09.538Z,1019.85
2018-01-28T00:02:09.539Z,1019.87
2018-01-28T00:03:09.534Z,1019.72
2018-01-28T00:04:09.564Z,1019.69
2018-01-28T00:05:09.543Z,1019.73
2018-01-28T00:06:09.603Z,1019.78
2018-01-28T00:07:09.545Z,1019.63
2018-01-28T00:08:09.550Z,1019.70
2018-01-28T00:09:09.547Z,1019.73
2018-01-28T00:10:09.552Z,1019.72
2018-01-28T00:11:09.551Z,1019.69
2018-01-28T00:12:09.557Z,1019.71
2018-01-28T00:13:09.556Z,1019.61
2018-01-28T00:14:09.562Z,1019.62
2018-01-28T00:15:09.558Z,1019.56
2018-01-28T00:16:09.565Z,1019.57
2018-01-28T00:17:09.565Z,1019.61
2018-01-28T00:18:09.572Z,1019.57
2018-01-28T00:19:09.565Z,1019.62
2018-01-28T00:20:09.567Z,1019.64
2018-01-28T00:21:09.567Z,1019.58
2018-01-28T00:22:09.577Z,1019.61
2018-01-28T00:23:09.574Z,1019.68
2018-01-28T00:24:09.580Z,1019.67
2018-01-28T00:25:09.580Z,1019.65
2018-01-28T00:26:09.582Z,1019.62
2018-01-28T00:27:09.588Z,1019.60
2018-01-28T00:28:09.585Z,1019.65
2018-01-28T00:29:09.588Z,1019.63
2018-01-28T00:30:09.587Z,1019.62
2018-01-28T00:31:09.594Z,1019.72
2018-01-28T00:32:09.586Z,1019.73
2018-01-28T00:33:09.595Z,1019.70
2018-01-28T00:34:09.598Z,1019.70
2018-01-28T00:35:09.605Z,1019.60
2018-01-28T00:36:09.598Z,1019.61
2018-01-28T00:37:09.606Z,1019.64
2018-01-28T00:38:09.599Z,1019.64
2018-01-28T00:39:09.608Z,1019.67
2018-01-28T00:40:09.604Z,1019.65
2018-01-28T00:41:09.603Z,1019.59
2018-01-28T00:42:09.615Z,1019.43
2018-01-28T00:43:09.614Z,1019.34
2018-01-28T00:44:09.612Z,1019.34
2018-01-28T00:45:09.615Z,1019.45
2018-01-28T00:46:09.618Z,1019.45
2018-01-28T00:47:09.624Z,1019.40
2018-01-28T00:48:09.619Z,1019.43
2018-01-28T00:49:09.625Z,1019.38
2018-01-28T00:50:09.630Z,1019.35
2018-01-28T00:51:09.627Z,1019.35
2018-01-28T00:52:10.151Z,1019.39
2018-01-28T00:53:09.630Z,1019.31
2018-01-28T00:54:09.635Z,1019.19
2018-01-28T00:55:09.636Z,1019.19
2018-01-28T00:56:09.634Z,1019.16
2018-01-28T00:57:09.640Z,1019.22
2018-01-28T00:58:09.646Z,1019.19
2018-01-28T00:59:09.652Z,1019.27
2018-01-28T01:00:09.646Z,1019.18
2018-01-28T01:01:09.649Z,1019.26
2018-01-28T01:02:09.646Z,1019.26
2018-01-28T01:03:09.647Z,1019.24
2018-01-28T01:04:09.654Z,1019.06
2018-01-28T01:05:09.660Z,1019.18
2018-01-28T01:06:09.655Z,1019.18
2018-01-28T01:07:09.656Z,1019.19
2018-01-28T01:08:09.663Z,1019.21
2018-01-28T01:09:09.664Z,1019.17
2018-01-28T01:10:09.660Z,1019.24
2018-01-28T01:11:09.664Z,1019.26
2018-01-28T01:12:10.660Z,1019.28
2018-01-28T01:13:09.670Z,1019.27
2018-01-28T01:14:09.674Z,1019.30
2018-01-28T01:15:09.676Z,1019.41
2018-01-28T01:16:09.674Z,1019.38
2018-01-28T01:17:09.672Z,1019.32
2018-01-28T01:18:09.680Z,1019.37
2018-01-28T01:19:09.721Z,1019.47
2018-01-28T01:20:09.688Z,1019.47
2018-01-28T01:21:09.689Z,1019.45
2018-01-28T01:22:09.695Z,1019.47
2018-01-28T01:23:09.696Z,1019.40
2018-01-28T01:24:09.692Z,1019.45
2018-01-28T01:25:09.696Z,1019.46
2018-01-28T01:26:09.697Z,1019.55
2018-01-28T01:27:09.698Z,1019.40
2018-01-28T01:28:09.722Z,1019.42
2018-01-28T01:29:09.703Z,1019.48
2018-01-28T01:30:09.703Z,1019.49
2018-01-28T01:31:09.712Z,1019.51
2018-01-28T01:32:09.709Z,1019.63
2018-01-28T01:33:09.711Z,1019.55
2018-01-28T01:34:09.714Z,1019.54
2018-01-28T01:35:09.705Z,1019.43
2018-01-28T01:36:09.715Z,1019.42
2018-01-28T01:37:09.717Z,1019.50
2018-01-28T01:38:09.718Z,1019.49
2018-01-28T01:39:09.721Z,1019.47
2018-01-28T01:40:09.720Z,1019.45
2018-01-28T01:41:09.722Z,1019.52
2018-01-28T01:42:09.726Z,1019.52
2018-01-28T01:43:09.728Z,1019.61
2018-01-28T01:44:09.733Z,1019.62
2018-01-28T01:45:09.744Z,1019.53
2018-01-28T01:46:09.741Z,1019.54
2018-01-28T01:47:09.739Z,1019.52
2018-01-28T01:48:09.737Z,1019.52
2018-01-28T01:49:09.742Z,1019.51
2018-01-28T01:50:10.661Z,1019.49
2018-01-28T01:51:09.743Z,1019.44
2018-01-28T01:52:09.747Z,1019.40
2018-01-28T01:53:09.749Z,1019.35
2018-01-28T01:54:09.772Z,1019.32
2018-01-28T01:55:09.749Z,1019.34
2018-01-28T01:56:09.748Z,1019.36
2018-01-28T01:57:09.760Z,1019.27
2018-01-28T01:58:09.759Z,1019.34
2018-01-28T01:59:09.763Z,1019.25
2018-01-28T02:00:09.762Z,1019.23
2018-01-28T02:01:09.765Z,1019.16
2018-01-28T02:02:09.774Z,1019.04
2018-01-28T02:03:09.769Z,1019.04
2018-01-28T02:04:09.772Z,1019.21
2018-01-28T02:05:09.778Z,1019.19
2018-01-28T02:06:09.776Z,1019.11
2018-01-28T02:07:09.769Z,1019.19
2018-01-28T02:08:09.782Z,1019.21
2018-01-28T02:09:09.778Z,1019.27
2018-01-28T02:10:09.784Z,1019.24
2018-01-28T02:11:09.790Z,1019.34
2018-01-28T02:12:09.788Z,1019.33
2018-01-28T02:13:09.787Z,1019.37
2018-01-28T02:14:09.789Z,1019.36
2018-01-28T02:15:09.792Z,1019.32
2018-01-28T02:16:09.796Z,1019.20
2018-01-28T02:17:09.794Z,1019.29
2018-01-28T02:18:09.834Z,1019.30
2018-01-28T02:19:09.804Z,1019.31
2018-01-28T02:20:09.799Z,1019.34
2018-01-28T02:21:09.800Z,1019.38
2018-01-28T02:22:09.809Z,1019.33
2018-01-28T02:23:09.809Z,1019.32
2018-01-28T02:24:09.805Z,1019.38
2018-01-28T02:25:09.814Z,1019.32
2018-01-28T02:26:09.808Z,1019.27
2018-01-28T02:28:02.717Z,1019.23
2018-01-28T02:29:02.688Z,1019.33
2018-01-28T02:30:55.669Z,1019.18
2018-01-28T02:31:55.701Z,1019.23
2018-01-28T02:33:48.651Z,1019.35
2018-01-28T02:34:48.606Z,1019.35
2018-01-28T02:35:48.611Z,1019.22
2018-01-28T02:36:48.606Z,1019.41
2018-01-28T02:37:48.627Z,1019.47
2018-01-28T02:38:48.623Z,1019.41
2018-01-28T02:39:48.620Z,1019.33
2018-01-28T02:40:48.625Z,1019.21
2018-01-28T02:41:48.625Z,1019.33
2018-01-28T02:42:48.622Z,1019.41
2018-01-28T02:43:48.625Z,1019.49
2018-01-28T02:44:48.627Z,1019.44
2018-01-28T02:46:41.562Z,1019.60
2018-01-28T02:47:41.541Z,1019.55
2018-01-28T02:49:34.501Z,1019.40
2018-01-28T02:50:34.499Z,1019.42
2018-01-28T02:52:27.480Z,1019.39
2018-01-28T02:53:27.450Z,1019.35
2018-01-28T02:55:20.424Z,1019.34
2018-01-28T02:56:20.406Z,1019.46
2018-01-28T02:58:13.382Z,1019.46
2018-01-28T02:59:13.365Z,1019.42
2018-01-28T03:01:06.332Z,1019.51
2018-01-28T03:02:06.323Z,1019.57
2018-01-28T03:03:59.305Z,1019.67
2018-01-28T03:04:59.280Z,1019.69
2018-01-28T03:05:59.296Z,1019.59
2018-01-28T03:06:59.287Z,1019.57
2018-01-28T03:07:59.291Z,1019.48
2018-01-28T03:08:59.289Z,1019.51
2018-01-28T03:09:59.296Z,1019.53
2018-01-28T03:10:59.294Z,1019.51
2018-01-28T03:11:59.291Z,1019.54
2018-01-28T03:12:59.302Z,1019.58
2018-01-28T03:13:59.301Z,1019.59
2018-01-28T03:14:59.300Z,1019.53
2018-01-28T03:15:59.304Z,1019.71
2018-01-28T03:16:59.307Z,1019.71
2018-01-28T03:17:59.311Z,1019.74
2018-01-28T03:18:59.305Z,1019.79
2018-01-28T03:19:59.313Z,1019.79
2018-01-28T03:20:59.315Z,1019.85
2018-01-28T03:21:59.319Z,1019.84
2018-01-28T03:22:59.320Z,1019.81
2018-01-28T03:23:59.324Z,1019.88
2018-01-28T03:24:59.329Z,1019.78
2018-01-28T03:25:59.329Z,1019.70
2018-01-28T03:26:59.329Z,1019.83
2018-01-28T03:27:59.333Z,1019.83
2018-01-28T03:28:59.336Z,1019.90
2018-01-28T03:29:59.340Z,1019.86
2018-01-28T03:30:59.338Z,1019.89
2018-01-28T03:31:59.341Z,1019.86
2018-01-28T03:32:59.340Z,1019.78
2018-01-28T03:33:59.351Z,1019.70
2018-01-28T03:34:59.348Z,1019.61
2018-01-28T03:35:59.352Z,1019.67
2018-01-28T03:36:59.353Z,1019.61
2018-01-28T03:37:59.357Z,1019.57
2018-01-28T03:38:59.356Z,1019.57
2018-01-28T03:39:59.360Z,1019.59
2018-01-28T03:40:59.362Z,1019.60
2018-01-28T03:41:59.357Z,1019.62
2018-01-28T03:42:59.367Z,1019.74
2018-01-28T03:43:59.367Z,1019.78
2018-01-28T03:44:59.371Z,1019.85
2018-01-28T03:45:59.373Z,1019.85
2018-01-28T03:46:59.379Z,1019.89
2018-01-28T03:47:59.375Z,1019.87
2018-01-28T03:48:59.385Z,1019.80
2018-01-28T03:50:00.274Z,1019.77
2018-01-28T03:50:59.384Z,1019.82
2018-01-28T03:51:59.388Z,1019.79
2018-01-28T03:52:59.392Z,1019.83
2018-01-28T03:53:59.390Z,1019.79
2018-01-28T03:54:59.398Z,1019.77
2018-01-28T03:55:59.394Z,1019.75
2018-01-28T03:56:59.394Z,1019.74
2018-01-28T03:57:59.402Z,1019.74
2018-01-28T03:58:59.405Z,1019.75
2018-01-28T03:59:59.413Z,1019.71
2018-01-28T04:00:59.416Z,1019.73
2018-01-28T04:01:59.412Z,1019.66
2018-01-28T04:02:59.417Z,1019.60
2018-01-28T04:03:59.419Z,1019.64
2018-01-28T04:04:59.425Z,1019.67
2018-01-28T04:05:59.424Z,1019.68
2018-01-28T04:06:59.423Z,1019.69
2018-01-28T04:07:59.442Z,1019.66
2018-01-28T04:08:59.432Z,1019.56
2018-01-28T04:09:59.430Z,1019.56
2018-01-28T04:10:59.440Z,1019.57
2018-01-28T04:12:52.350Z,1019.56
2018-01-28T04:13:52.337Z,1019.65
2018-01-28T04:15:45.317Z,1019.67
2018-01-28T04:16:45.287Z,1019.65
2018-01-28T04:18:38.246Z,1019.89
2018-01-28T04:19:38.246Z,1019.87
2018-01-28T04:21:31.228Z,1019.90
2018-01-28T04:22:31.201Z,1019.98
2018-01-28T04:24:24.173Z,1020.15
2018-01-28T04:25:24.162Z,1020.13
2018-01-28T04:27:17.141Z,1020.08
2018-01-28T04:28:17.119Z,1020.10
2018-01-28T04:30:10.086Z,1020.01
2018-01-28T04:31:10.076Z,1020.05
2018-01-28T04:33:03.050Z,1020.05
2018-01-28T04:34:03.030Z,1019.97
2018-01-28T04:35:55.996Z,1019.93
2018-01-28T04:36:55.987Z,1019.94
2018-01-28T04:38:48.966Z,1019.91
2018-01-28T04:39:48.949Z,1019.88
2018-01-28T04:40:48.950Z,1019.83
2018-01-28T04:41:48.953Z,1019.81
2018-01-28T04:42:48.952Z,1019.88
2018-01-28T04:43:48.961Z,1019.90
2018-01-28T04:44:48.962Z,1019.98
2018-01-28T04:45:48.975Z,1020.10
2018-01-28T04:46:48.969Z,1020.09
2018-01-28T04:47:48.976Z,1020.02
2018-01-28T04:48:48.974Z,1020.11
2018-01-28T04:49:48.974Z,1020.12
2018-01-28T04:50:48.982Z,1020.11
2018-01-28T04:51:48.981Z,1020.18
2018-01-28T04:52:48.987Z,1020.19
2018-01-28T04:53:48.988Z,1020.14
2018-01-28T04:54:48.991Z,1020.19
2018-01-28T04:55:48.991Z,1020.19
2018-01-28T04:56:48.994Z,1020.27
2018-01-28T04:57:48.999Z,1020.28
2018-01-28T04:58:48.999Z,1020.29
2018-01-28T04:59:49.003Z,1020.26
2018-01-28T05:00:49.005Z,1020.22
2018-01-28T05:01:49.014Z,1020.24
2018-01-28T05:02:49.013Z,1020.23
2018-01-28T05:03:49.013Z,1020.21
2018-01-28T05:04:49.012Z,1020.25
2018-01-28T05:05:49.019Z,1020.16
2018-01-28T05:06:49.020Z,1020.09
2018-01-28T05:07:49.027Z,1020.09
2018-01-28T05:08:49.070Z,1020.15
2018-01-28T05:09:49.035Z,1020.17
2018-01-28T05:10:49.029Z,1020.22
2018-01-28T05:11:49.037Z,1020.20
2018-01-28T05:12:49.043Z,1020.29
2018-01-28T05:13:49.040Z,1020.33
2018-01-28T05:14:49.048Z,1020.34
2018-01-28T05:15:49.046Z,1020.38
2018-01-28T05:16:49.051Z,1020.32
2018-01-28T05:17:49.054Z,1020.29
2018-01-28T05:18:49.062Z,1020.30
2018-01-28T05:19:49.056Z,1020.23
2018-01-28T05:20:49.063Z,1020.25
2018-01-28T05:21:49.065Z,1020.30
2018-01-28T05:22:49.069Z,1020.24
2018-01-28T05:23:49.068Z,1020.23
2018-01-28T05:24:49.072Z,1020.27
2018-01-28T05:25:49.077Z,1020.32
2018-01-28T05:26:49.088Z,1020.27
2018-01-28T05:27:49.078Z,1020.28
2018-01-28T05:28:49.079Z,1020.26
2018-01-28T05:29:49.096Z,1020.26
2018-01-28T05:30:49.092Z,1020.30
2018-01-28T05:31:49.093Z,1020.26
2018-01-28T05:32:49.099Z,1020.22
2018-01-28T05:33:49.104Z,1020.26
2018-01-28T05:34:49.102Z,1020.26
2018-01-28T05:35:49.111Z,1020.26
2018-01-28T05:36:49.108Z,1020.17
2018-01-28T05:37:49.109Z,1020.17
2018-01-28T05:38:49.110Z,1020.07
2018-01-28T05:39:49.118Z,1019.98
2018-01-28T05:40:49.120Z,1020.00
2018-01-28T05:41:49.121Z,1019.99
2018-01-28T05:42:49.123Z,1020.10
2018-01-28T05:43:49.130Z,1020.16
2018-01-28T05:44:49.130Z,1020.24
2018-01-28T05:45:49.131Z,1020.22
2018-01-28T05:46:49.138Z,1020.30
2018-01-28T05:47:49.139Z,1020.32
2018-01-28T05:48:49.144Z,1020.32
2018-01-28T05:49:49.146Z,1020.31
2018-01-28T05:50:49.145Z,1020.37
2018-01-28T05:51:49.152Z,1020.35
2018-01-28T05:52:49.167Z,1020.43
2018-01-28T05:53:49.155Z,1020.54
2018-01-28T05:54:49.167Z,1020.63
2018-01-28T05:55:49.163Z,1020.66
2018-01-28T05:56:49.162Z,1020.65
2018-01-28T05:57:49.170Z,1020.68
2018-01-28T05:58:49.174Z,1020.66
2018-01-28T05:59:49.172Z,1020.68
2018-01-28T06:00:49.172Z,1020.65
2018-01-28T06:01:49.178Z,1020.73
2018-01-28T06:02:49.189Z,1020.74
2018-01-28T06:03:49.187Z,1020.77
2018-01-28T06:04:49.185Z,1020.76
2018-01-28T06:05:49.193Z,1020.82
2018-01-28T06:06:49.194Z,1020.82
2018-01-28T06:07:49.232Z,1020.83
2018-01-28T06:08:49.195Z,1020.80
2018-01-28T06:09:49.206Z,1020.80
2018-01-28T06:10:49.954Z,1020.88
2018-01-28T06:11:49.212Z,1020.93
2018-01-28T06:12:49.210Z,1020.96
2018-01-28T06:13:49.210Z,1020.93
2018-01-28T06:14:49.219Z,1021.00
2018-01-28T06:15:49.221Z,1020.96
2018-01-28T06:16:49.227Z,1021.03
2018-01-28T06:17:49.223Z,1021.01
2018-01-28T06:18:49.229Z,1021.01
2018-01-28T06:19:49.232Z,1020.97
2018-01-28T06:20:49.233Z,1020.95
2018-01-28T06:21:49.241Z,1020.97
2018-01-28T06:22:49.238Z,1020.95
2018-01-28T06:23:49.244Z,1020.93
2018-01-28T06:24:49.247Z,1020.94
2018-01-28T06:25:49.246Z,1020.99
2018-01-28T06:26:49.250Z,1020.99
2018-01-28T06:27:49.253Z,1020.93
2018-01-28T06:28:49.256Z,1021.03
2018-01-28T06:29:49.264Z,1021.03
2018-01-28T06:30:49.262Z,1020.92
2018-01-28T06:31:49.272Z,1020.86
2018-01-28T06:32:49.265Z,1020.90
2018-01-28T06:33:49.276Z,1020.88
2018-01-28T06:34:49.275Z,1020.88
2018-01-28T06:35:49.276Z,1020.96
2018-01-28T06:36:49.279Z,1020.92
2018-01-28T06:37:49.281Z,1020.99
2018-01-28T06:38:49.289Z,1021.04
2018-01-28T06:39:49.287Z,1021.04
2018-01-28T06:40:49.289Z,1021.06
2018-01-28T06:41:49.292Z,1021.08
2018-01-28T06:42:49.297Z,1021.06
2018-01-28T06:43:49.349Z,1021.08
2018-01-28T06:44:49.304Z,1020.95
2018-01-28T06:45:49.301Z,1020.92
2018-01-28T06:46:49.305Z,1020.88
2018-01-28T06:47:49.314Z,1020.87
2018-01-28T06:48:49.318Z,1020.93
2018-01-28T06:49:49.312Z,1020.95
2018-01-28T06:50:49.324Z,1020.96
2018-01-28T06:51:49.324Z,1020.92
2018-01-28T06:52:49.327Z,1020.95
2018-01-28T06:53:49.332Z,1020.98
2018-01-28T06:54:49.344Z,1021.01
2018-01-28T06:55:49.337Z,1021.08
2018-01-28T06:56:49.333Z,1021.10
2018-01-28T06:57:49.338Z,1021.08
2018-01-28T06:58:49.348Z,1021.14
2018-01-28T06:59:49.348Z,1021.20
2018-01-28T07:00:49.346Z,1021.20
2018-01-28T07:01:49.358Z,1021.29
2018-01-28T07:02:49.362Z,1021.22
2018-01-28T07:03:49.354Z,1021.27
2018-01-28T07:04:49.361Z,1021.24
2018-01-28T07:05:49.369Z,1021.29
2018-01-28T07:06:49.401Z,1021.33
2018-01-28T07:07:49.367Z,1021.30
2018-01-28T07:08:49.377Z,1021.35
2018-01-28T07:09:49.383Z,1021.40
2018-01-28T07:10:49.382Z,1021.45
2018-01-28T07:11:49.379Z,1021.43
2018-01-28T07:12:49.389Z,1021.39
2018-01-28T07:13:49.390Z,1021.37
2018-01-28T07:14:49.396Z,1021.38
2018-01-28T07:15:49.397Z,1021.35
2018-01-28T07:16:49.403Z,1021.38
2018-01-28T07:17:49.398Z,1021.37
2018-01-28T07:18:49.411Z,1021.37
2018-01-28T07:19:49.408Z,1021.41
2018-01-28T07:20:49.432Z,1021.37
2018-01-28T07:21:49.408Z,1021.47
2018-01-28T07:22:49.413Z,1021.42
2018-01-28T07:23:49.422Z,1021.49
2018-01-28T07:24:49.425Z,1021.52
2018-01-28T07:25:49.424Z,1021.49
2018-01-28T07:26:49.428Z,1021.60
2018-01-28T07:27:49.428Z,1021.60
2018-01-28T07:28:49.433Z,1021.62
2018-01-28T07:29:49.436Z,1021.65
2018-01-28T07:30:49.443Z,1021.65
2018-01-28T07:31:49.444Z,1021.72
2018-01-28T07:32:49.441Z,1021.69
2018-01-28T07:33:49.456Z,1021.72
2018-01-28T07:34:49.446Z,1021.80
2018-01-28T07:35:49.975Z,1021.75
2018-01-28T07:36:49.456Z,1021.72
2018-01-28T07:37:49.463Z,1021.78
2018-01-28T07:38:49.465Z,1021.76
2018-01-28T07:39:49.472Z,1021.79
2018-01-28T07:40:49.482Z,1021.76
2018-01-28T07:41:49.473Z,1021.83
2018-01-28T07:42:49.477Z,1021.80
2018-01-28T07:43:49.487Z,1021.82
2018-01-28T07:44:50.640Z,1021.80
2018-01-28T07:45:49.489Z,1021.77
2018-01-28T07:46:49.502Z,1021.77
2018-01-28T07:47:49.494Z,1021.76
2018-01-28T07:48:49.496Z,1021.73
2018-01-28T07:49:49.498Z,1021.78
2018-01-28T07:50:49.501Z,1021.84
2018-01-28T07:51:49.511Z,1021.83
2018-01-28T07:52:49.511Z,1021.81
2018-01-28T07:53:49.509Z,1021.81
2018-01-28T07:54:49.517Z,1021.83
2018-01-28T07:55:49.513Z,1021.87
2018-01-28T07:56:49.524Z,1021.85
2018-01-28T07:57:49.522Z,1021.90
2018-01-28T07:58:49.528Z,1021.85
2018-01-28T07:59:49.528Z,1021.91
2018-01-28T08:00:49.533Z,1021.92
2018-01-28T08:02:42.441Z,1021.85
2018-01-28T08:03:42.425Z,1021.83
2018-01-28T08:05:35.379Z,1021.84
2018-01-28T08:06:35.917Z,1021.83
2018-01-28T08:08:28.365Z,1021.80
2018-01-28T08:09:28.333Z,1021.80
2018-01-28T08:11:21.292Z,1021.79
2018-01-28T08:12:21.293Z,1021.74
2018-01-28T08:14:14.280Z,1021.68
2018-01-28T08:15:14.246Z,1021.67
2018-01-28T08:17:07.213Z,1021.68
2018-01-28T08:18:07.207Z,1021.69
2018-01-28T08:20:00.191Z,1021.71
2018-01-28T08:21:00.159Z,1021.69
2018-01-28T08:22:53.126Z,1021.74
2018-01-28T08:23:53.120Z,1021.77
2018-01-28T08:25:46.101Z,1021.71
2018-01-28T08:26:46.078Z,1021.68
2018-01-28T08:28:39.042Z,1021.76
2018-01-28T08:29:39.034Z,1021.76
2018-01-28T08:31:32.019Z,1021.75
2018-01-28T08:32:31.989Z,1021.78
2018-01-28T08:34:24.953Z,1021.86
2018-01-28T08:35:24.950Z,1021.87
2018-01-28T08:37:17.924Z,1021.90
2018-01-28T08:38:17.903Z,1021.85
2018-01-28T08:40:10.865Z,1021.84
2018-01-28T08:41:10.866Z,1021.80
2018-01-28T08:43:03.839Z,1021.78
2018-01-28T08:44:03.817Z,1021.75
2018-01-28T08:45:56.780Z,1021.78
2018-01-28T08:46:56.778Z,1021.89
2018-01-28T08:48:49.756Z,1021.88
2018-01-28T08:49:49.732Z,1021.88
2018-01-28T08:51:42.722Z,1021.92
2018-01-28T08:52:42.688Z,1021.91
2018-01-28T08:54:35.646Z,1021.94
2018-01-28T08:55:35.649Z,1021.97
2018-01-28T08:57:28.631Z,1022.01
2018-01-28T08:58:28.606Z,1021.99
2018-01-28T09:00:21.561Z,1021.96
2018-01-28T09:01:21.560Z,1022.02
2018-01-28T09:03:14.537Z,1021.99
2018-01-28T09:04:14.522Z,1022.00
2018-01-28T09:06:07.484Z,1021.95
2018-01-28T09:07:07.473Z,1021.94
2018-01-28T09:09:00.455Z,1021.98
2018-01-28T09:10:00.433Z,1021.96
2018-01-28T09:11:53.390Z,1021.99
2018-01-28T09:12:53.393Z,1022.03
2018-01-28T09:14:46.371Z,1022.02
2018-01-28T09:15:46.343Z,1022.08
2018-01-28T09:17:39.310Z,1022.05
2018-01-28T09:18:39.305Z,1022.06
2018-01-28T09:20:32.285Z,1022.07
2018-01-28T09:21:32.262Z,1022.15
2018-01-28T09:23:25.249Z,1022.17
2018-01-28T09:24:25.222Z,1022.23
2018-01-28T09:26:18.184Z,1022.29
2018-01-28T09:27:18.180Z,1022.29
2018-01-28T09:29:11.163Z,1022.34
2018-01-28T09:30:11.134Z,1022.33
2018-01-28T09:31:11.140Z,1022.32
2018-01-28T09:32:11.140Z,1022.35
2018-01-28T09:33:11.148Z,1022.29
2018-01-28T09:34:11.153Z,1022.30
2018-01-28T09:35:11.156Z,1022.26
2018-01-28T09:36:11.149Z,1022.33
2018-01-28T09:37:11.160Z,1022.27
2018-01-28T09:38:11.160Z,1022.31
2018-01-28T09:39:11.172Z,1022.35
2018-01-28T09:40:11.179Z,1022.35
2018-01-28T09:41:11.173Z,1022.31
2018-01-28T09:42:11.181Z,1022.34
2018-01-28T09:43:11.185Z,1022.31
2018-01-28T09:44:11.188Z,1022.35
2018-01-28T09:45:11.190Z,1022.45
2018-01-28T09:46:11.196Z,1022.40
2018-01-28T09:47:11.197Z,1022.37
2018-01-28T09:48:11.203Z,1022.36
2018-01-28T09:49:11.203Z,1022.43
2018-01-28T09:50:11.210Z,1022.44
2018-01-28T09:51:11.210Z,1022.44
2018-01-28T09:52:11.216Z,1022.39
2018-01-28T09:53:11.218Z,1022.50
2018-01-28T09:54:11.226Z,1022.46
2018-01-28T09:55:11.224Z,1022.45
2018-01-28T09:56:11.226Z,1022.47
2018-01-28T09:57:11.235Z,1022.44
2018-01-28T09:58:11.234Z,1022.38
2018-01-28T09:59:11.239Z,1022.38
2018-01-28T10:00:11.244Z,1022.33
2018-01-28T10:01:11.247Z,1022.27
2018-01-28T10:02:11.251Z,1022.28
2018-01-28T10:03:11.260Z,1022.23
2018-01-28T10:04:11.261Z,1022.26
2018-01-28T10:05:11.267Z,1022.22
2018-01-28T10:06:11.269Z,1022.27
2018-01-28T10:07:11.271Z,1022.31
2018-01-28T10:08:11.278Z,1022.30
2018-01-28T10:09:11.276Z,1022.41
2018-01-28T10:10:11.282Z,1022.47
2018-01-28T10:11:11.285Z,1022.51
2018-01-28T10:12:11.294Z,1022.49
2018-01-28T10:13:11.295Z,1022.52
2018-01-28T10:14:11.315Z,1022.43
2018-01-28T10:15:11.304Z,1022.47
2018-01-28T10:16:11.308Z,1022.44
2018-01-28T10:17:11.310Z,1022.42
2018-01-28T10:18:11.313Z,1022.45
2018-01-28T10:19:11.318Z,1022.46
2018-01-28T10:20:11.318Z,1022.49
2018-01-28T10:21:11.325Z,1022.48
2018-01-28T10:22:11.326Z,1022.49
2018-01-28T10:23:11.332Z,1022.47
2018-01-28T10:24:11.335Z,1022.46
2018-01-28T10:25:12.140Z,1022.53
2018-01-28T10:26:11.342Z,1022.62
2018-01-28T10:27:11.353Z,1022.67
2018-01-28T10:28:11.353Z,1022.67
2018-01-28T10:29:11.358Z,1022.62
2018-01-28T10:30:11.359Z,1022.51
2018-01-28T10:31:11.363Z,1022.52
2018-01-28T10:32:11.362Z,1022.51
2018-01-28T10:33:11.372Z,1022.50
2018-01-28T10:34:11.378Z,1022.50
2018-01-28T10:35:11.376Z,1022.52
2018-01-28T10:36:11.380Z,1022.46
2018-01-28T10:37:11.387Z,1022.36
2018-01-28T10:38:11.390Z,1022.37
2018-01-28T10:39:11.391Z,1022.39
2018-01-28T10:40:11.397Z,1022.43
2018-01-28T10:41:11.404Z,1022.47
2018-01-28T10:42:11.407Z,1022.43
2018-01-28T10:43:11.408Z,1022.48
2018-01-28T10:44:11.410Z,1022.42
2018-01-28T10:45:11.419Z,1022.40
2018-01-28T10:46:11.422Z,1022.42
2018-01-28T10:47:11.440Z,1022.38
2018-01-28T10:48:11.426Z,1022.37
2018-01-28T10:49:11.432Z,1022.36
2018-01-28T10:50:11.440Z,1022.36
2018-01-28T10:51:11.442Z,1022.38
2018-01-28T10:52:11.449Z,1022.42
2018-01-28T10:53:11.447Z,1022.40
2018-01-28T10:54:11.448Z,1022.41
2018-01-28T10:55:11.459Z,1022.37
2018-01-28T10:56:11.462Z,1022.37
2018-01-28T10:57:11.465Z,1022.35
2018-01-28T10:58:11.477Z,1022.40
2018-01-28T10:59:11.473Z,1022.38
2018-01-28T11:00:11.472Z,1022.41
2018-01-28T11:01:11.479Z,1022.36
2018-01-28T11:02:11.481Z,1022.32
2018-01-28T11:03:11.488Z,1022.31
2018-01-28T11:04:11.496Z,1022.31
2018-01-28T11:05:11.499Z,1022.29
2018-01-28T11:06:11.497Z,1022.33
2018-01-28T11:07:11.506Z,1022.34
2018-01-28T11:08:11.510Z,1022.35
2018-01-28T11:09:11.508Z,1022.31
2018-01-28T11:10:11.518Z,1022.30
2018-01-28T11:11:11.521Z,1022.33
2018-01-28T11:12:11.529Z,1022.29
2018-01-28T11:13:11.527Z,1022.36
2018-01-28T11:14:11.537Z,1022.33
2018-01-28T11:15:11.536Z,1022.34
2018-01-28T11:16:11.540Z,1022.43
2018-01-28T11:17:11.579Z,1022.39
2018-01-28T11:18:11.549Z,1022.40
2018-01-28T11:19:11.550Z,1022.41
2018-01-28T11:20:11.557Z,1022.46
2018-01-28T11:21:11.560Z,1022.48
2018-01-28T11:22:11.563Z,1022.50
2018-01-28T11:23:11.573Z,1022.56
2018-01-28T11:24:11.573Z,1022.55
2018-01-28T11:25:11.581Z,1022.49
2018-01-28T11:26:11.580Z,1022.51
2018-01-28T11:27:11.601Z,1022.55
2018-01-28T11:28:11.594Z,1022.54
2018-01-28T11:29:11.596Z,1022.54
2018-01-28T11:30:12.151Z,1022.52
2018-01-28T11:31:11.608Z,1022.49
2018-01-28T11:32:11.612Z,1022.57
2018-01-28T11:33:11.611Z,1022.54
2018-01-28T11:34:11.616Z,1022.48
2018-01-28T11:35:11.630Z,1022.56
2018-01-28T11:36:11.628Z,1022.50
2018-01-28T11:37:11.632Z,1022.51
2018-01-28T11:38:11.687Z,1022.54
2018-01-28T11:39:11.640Z,1022.51
2018-01-28T11:40:11.641Z,1022.52
2018-01-28T11:41:11.649Z,1022.54
2018-01-28T11:42:11.653Z,1022.51
2018-01-28T11:43:11.653Z,1022.50
2018-01-28T11:44:11.662Z,1022.46
2018-01-28T11:45:11.666Z,1022.55
2018-01-28T11:46:11.674Z,1022.51
2018-01-28T11:47:11.673Z,1022.48
2018-01-28T11:48:11.680Z,1022.43
2018-01-28T11:49:11.679Z,1022.40
2018-01-28T11:50:11.683Z,1022.45
2018-01-28T11:51:11.689Z,1022.42
2018-01-28T11:52:11.699Z,1022.46
2018-01-28T11:53:11.707Z,1022.48
2018-01-28T11:54:11.702Z,1022.49
2018-01-28T11:55:11.713Z,1022.58
2018-01-28T11:56:11.714Z,1022.63
2018-01-28T11:57:11.714Z,1022.58
2018-01-28T11:58:11.742Z,1022.62
2018-01-28T11:59:11.729Z,1022.65
2018-01-28T12:00:11.736Z,1022.62
2018-01-28T12:01:11.735Z,1022.60
2018-01-28T12:02:11.740Z,1022.53
2018-01-28T12:03:11.747Z,1022.49
2018-01-28T12:04:11.747Z,1022.51
2018-01-28T12:05:11.797Z,1022.49
2018-01-28T12:06:11.758Z,1022.42
2018-01-28T12:07:11.764Z,1022.45
2018-01-28T12:08:11.765Z,1022.41
2018-01-28T12:09:11.773Z,1022.40
2018-01-28T12:10:11.775Z,1022.42
2018-01-28T12:11:11.783Z,1022.45
2018-01-28T12:12:11.784Z,1022.41
2018-01-28T12:13:11.792Z,1022.50
2018-01-28T12:14:11.792Z,1022.54
2018-01-28T12:15:11.802Z,1022.46
2018-01-28T12:16:11.802Z,1022.50
2018-01-28T12:17:11.811Z,1022.47
2018-01-28T12:18:11.810Z,1022.49
2018-01-28T12:19:11.820Z,1022.46
2018-01-28T12:20:11.823Z,1022.45
2018-01-28T12:21:11.825Z,1022.43
2018-01-28T12:22:11.832Z,1022.44
2018-01-28T12:23:11.833Z,1022.33
2018-01-28T12:24:11.843Z,1022.35
2018-01-28T12:25:11.845Z,1022.32
2018-01-28T12:26:11.847Z,1022.36
2018-01-28T12:27:11.854Z,1022.28
2018-01-28T12:28:11.862Z,1022.30
2018-01-28T12:29:11.863Z,1022.31
2018-01-28T12:30:11.870Z,1022.32
2018-01-28T12:31:11.870Z,1022.31
2018-01-28T12:32:11.878Z,1022.32
2018-01-28T12:33:11.883Z,1022.28
2018-01-28T12:34:11.889Z,1022.30
2018-01-28T12:35:11.894Z,1022.32
2018-01-28T12:36:11.893Z,1022.33
2018-01-28T12:37:11.905Z,1022.34
2018-01-28T12:38:11.907Z,1022.36
2018-01-28T12:39:11.909Z,1022.37
2018-01-28T12:40:11.914Z,1022.34
2018-01-28T12:41:11.959Z,1022.39
2018-01-28T12:42:11.924Z,1022.39
2018-01-28T12:43:11.926Z,1022.38
2018-01-28T12:44:11.933Z,1022.38
2018-01-28T12:45:11.942Z,1022.35
2018-01-28T12:46:11.945Z,1022.37
2018-01-28T12:47:11.948Z,1022.34
2018-01-28T12:48:11.951Z,1022.39
2018-01-28T12:49:11.966Z,1022.38
2018-01-28T12:50:11.967Z,1022.39